sensor_id;sensor_type;location;lat;lon;timestamp;P1;durP1;ratioP1;P2;durP2;ratioP2
20090;SDS011;10205;49.678;6.560;2023-06-10T00:01:47;4.18;;;3.85;;
20090;SDS011;10205;49.678;6.560;2023-06-10T00:04:15;4.22;;;3.92;;
20090;SDS011;10205;49.678;6.560;2023-06-10T00:06:43;4.22;;;3.83;;
20090;SDS011;10205;49.678;6.560;2023-06-10T00:09:10;3.88;;;3.58;;
20090;SDS011;10205;49.678;6.560;2023-06-10T00:11:39;4.22;;;3.85;;
20090;SDS011;10205;49.678;6.560;2023-06-10T00:14:07;5.28;;;4.15;;
20090;SDS011;10205;49.678;6.560;2023-06-10T00:16:36;4.00;;;3.70;;
20090;SDS011;10205;49.678;6.560;2023-06-10T00:19:04;4.47;;;4.07;;
20090;SDS011;10205;49.678;6.560;2023-06-10T00:21:31;3.67;;;3.38;;
20090;SDS011;10205;49.678;6.560;2023-06-10T00:24:02;4.03;;;3.70;;
20090;SDS011;10205;49.678;6.560;2023-06-10T00:26:31;3.90;;;3.60;;
20090;SDS011;10205;49.678;6.560;2023-06-10T00:28:59;3.90;;;3.60;;
20090;SDS011;10205;49.678;6.560;2023-06-10T00:31:26;4.25;;;3.85;;
20090;SDS011;10205;49.678;6.560;2023-06-10T00:33:55;3.58;;;3.35;;
20090;SDS011;10205;49.678;6.560;2023-06-10T00:36:23;3.88;;;3.55;;
20090;SDS011;10205;49.678;6.560;2023-06-10T00:38:51;3.90;;;3.33;;
20090;SDS011;10205;49.678;6.560;2023-06-10T00:41:18;4.40;;;4.00;;
20090;SDS011;10205;49.678;6.560;2023-06-10T00:43:45;4.40;;;4.00;;
20090;SDS011;10205;49.678;6.560;2023-06-10T00:46:13;4.03;;;3.72;;
20090;SDS011;10205;49.678;6.560;2023-06-10T00:48:41;4.43;;;4.03;;
20090;SDS011;10205;49.678;6.560;2023-06-10T00:51:11;4.05;;;3.75;;
20090;SDS011;10205;49.678;6.560;2023-06-10T00:53:39;4.53;;;4.13;;
20090;SDS011;10205;49.678;6.560;2023-06-10T00:56:07;4.18;;;3.88;;
20090;SDS011;10205;49.678;6.560;2023-06-10T00:58:35;4.70;;;4.30;;
20090;SDS011;10205;49.678;6.560;2023-06-10T01:01:03;4.55;;;4.15;;
20090;SDS011;10205;49.678;6.560;2023-06-10T01:03:30;4.10;;;3.70;;
20090;SDS011;10205;49.678;6.560;2023-06-10T01:06:04;3.88;;;3.58;;
20090;SDS011;10205;49.678;6.560;2023-06-10T01:08:46;4.70;;;4.30;;
20090;SDS011;10205;49.678;6.560;2023-06-10T01:11:25;4.55;;;4.13;;
20090;SDS011;10205;49.678;6.560;2023-06-10T01:14:00;4.35;;;3.95;;
20090;SDS011;10205;49.678;6.560;2023-06-10T01:16:30;4.82;;;3.88;;
20090;SDS011;10205;49.678;6.560;2023-06-10T01:18:57;4.00;;;3.70;;
20090;SDS011;10205;49.678;6.560;2023-06-10T01:21:26;4.88;;;4.38;;
20090;SDS011;10205;49.678;6.560;2023-06-10T01:23:54;4.80;;;4.28;;
20090;SDS011;10205;49.678;6.560;2023-06-10T01:26:24;4.57;;;4.18;;
20090;SDS011;10205;49.678;6.560;2023-06-10T01:28:57;4.60;;;4.20;;
20090;SDS011;10205;49.678;6.560;2023-06-10T01:31:31;5.18;;;4.72;;
20090;SDS011;10205;49.678;6.560;2023-06-10T01:34:09;4.47;;;4.18;;
20090;SDS011;10205;49.678;6.560;2023-06-10T01:36:41;4.70;;;4.30;;
20090;SDS011;10205;49.678;6.560;2023-06-10T01:39:13;4.30;;;3.90;;
20090;SDS011;10205;49.678;6.560;2023-06-10T01:41:42;4.63;;;4.22;;
20090;SDS011;10205;49.678;6.560;2023-06-10T01:44:10;4.25;;;3.85;;
20090;SDS011;10205;49.678;6.560;2023-06-10T01:46:38;4.95;;;4.38;;
20090;SDS011;10205;49.678;6.560;2023-06-10T01:49:05;4.80;;;4.40;;
20090;SDS011;10205;49.678;6.560;2023-06-10T01:51:33;5.22;;;4.55;;
20090;SDS011;10205;49.678;6.560;2023-06-10T01:54:01;4.88;;;4.35;;
20090;SDS011;10205;49.678;6.560;2023-06-10T01:56:29;4.28;;;3.88;;
20090;SDS011;10205;49.678;6.560;2023-06-10T01:58:56;4.72;;;4.32;;
20090;SDS011;10205;49.678;6.560;2023-06-10T02:01:24;4.40;;;4.00;;
20090;SDS011;10205;49.678;6.560;2023-06-10T02:03:51;4.75;;;4.07;;
20090;SDS011;10205;49.678;6.560;2023-06-10T02:06:19;4.30;;;3.88;;
20090;SDS011;10205;49.678;6.560;2023-06-10T02:08:46;4.88;;;3.90;;
20090;SDS011;10205;49.678;6.560;2023-06-10T02:11:15;4.60;;;4.20;;
20090;SDS011;10205;49.678;6.560;2023-06-10T02:13:42;4.57;;;4.18;;
20090;SDS011;10205;49.678;6.560;2023-06-10T02:16:10;4.95;;;4.00;;
20090;SDS011;10205;49.678;6.560;2023-06-10T02:18:38;4.30;;;3.90;;
20090;SDS011;10205;49.678;6.560;2023-06-10T02:21:08;4.40;;;4.10;;
20090;SDS011;10205;49.678;6.560;2023-06-10T02:23:35;4.43;;;4.03;;
20090;SDS011;10205;49.678;6.560;2023-06-10T02:26:02;4.13;;;3.83;;
20090;SDS011;10205;49.678;6.560;2023-06-10T02:28:31;5.68;;;4.65;;
20090;SDS011;10205;49.678;6.560;2023-06-10T02:30:58;4.25;;;3.85;;
20090;SDS011;10205;49.678;6.560;2023-06-10T02:33:25;4.60;;;4.03;;
20090;SDS011;10205;49.678;6.560;2023-06-10T02:35:53;4.57;;;3.90;;
20090;SDS011;10205;49.678;6.560;2023-06-10T02:38:20;3.95;;;3.65;;
20090;SDS011;10205;49.678;6.560;2023-06-10T02:40:48;4.60;;;4.20;;
20090;SDS011;10205;49.678;6.560;2023-06-10T02:43:15;4.43;;;4.10;;
20090;SDS011;10205;49.678;6.560;2023-06-10T02:45:43;6.10;;;4.10;;
20090;SDS011;10205;49.678;6.560;2023-06-10T02:48:11;5.07;;;4.65;;
20090;SDS011;10205;49.678;6.560;2023-06-10T02:50:38;4.50;;;4.10;;
20090;SDS011;10205;49.678;6.560;2023-06-10T02:53:05;4.55;;;4.22;;
20090;SDS011;10205;49.678;6.560;2023-06-10T02:55:33;4.10;;;3.80;;
20090;SDS011;10205;49.678;6.560;2023-06-10T02:58:00;4.70;;;4.30;;
20090;SDS011;10205;49.678;6.560;2023-06-10T03:00:27;4.50;;;4.10;;
20090;SDS011;10205;49.678;6.560;2023-06-10T03:02:56;4.63;;;4.22;;
20090;SDS011;10205;49.678;6.560;2023-06-10T03:05:25;4.60;;;4.05;;
20090;SDS011;10205;49.678;6.560;2023-06-10T03:07:52;4.45;;;4.05;;
20090;SDS011;10205;49.678;6.560;2023-06-10T03:10:20;4.70;;;4.30;;
20090;SDS011;10205;49.678;6.560;2023-06-10T03:12:47;4.38;;;3.97;;
20090;SDS011;10205;49.678;6.560;2023-06-10T03:15:14;4.00;;;3.70;;
20090;SDS011;10205;49.678;6.560;2023-06-10T03:17:41;4.38;;;4.00;;
20090;SDS011;10205;49.678;6.560;2023-06-10T03:20:11;4.72;;;4.30;;
20090;SDS011;10205;49.678;6.560;2023-06-10T03:22:40;4.60;;;4.20;;
20090;SDS011;10205;49.678;6.560;2023-06-10T03:25:08;4.88;;;4.47;;
20090;SDS011;10205;49.678;6.560;2023-06-10T03:27:38;4.50;;;4.18;;
20090;SDS011;10205;49.678;6.560;2023-06-10T03:30:06;4.07;;;3.78;;
20090;SDS011;10205;49.678;6.560;2023-06-10T03:32:35;3.95;;;3.63;;
20090;SDS011;10205;49.678;6.560;2023-06-10T03:35:02;4.70;;;4.30;;
20090;SDS011;10205;49.678;6.560;2023-06-10T03:37:33;4.40;;;4.00;;
20090;SDS011;10205;49.678;6.560;2023-06-10T03:40:00;4.45;;;4.15;;
20090;SDS011;10205;49.678;6.560;2023-06-10T03:42:28;4.70;;;4.30;;
20090;SDS011;10205;49.678;6.560;2023-06-10T03:44:55;4.22;;;3.90;;
20090;SDS011;10205;49.678;6.560;2023-06-10T03:47:23;4.50;;;4.07;;
20090;SDS011;10205;49.678;6.560;2023-06-10T03:49:50;4.35;;;3.95;;
20090;SDS011;10205;49.678;6.560;2023-06-10T03:52:18;4.75;;;4.30;;
20090;SDS011;10205;49.678;6.560;2023-06-10T03:54:46;4.20;;;3.90;;
20090;SDS011;10205;49.678;6.560;2023-06-10T03:57:13;4.13;;;3.72;;
20090;SDS011;10205;49.678;6.560;2023-06-10T03:59:41;5.95;;;4.20;;
20090;SDS011;10205;49.678;6.560;2023-06-10T04:02:08;4.18;;;3.88;;
20090;SDS011;10205;49.678;6.560;2023-06-10T04:04:35;4.57;;;4.18;;
20090;SDS011;10205;49.678;6.560;2023-06-10T04:07:03;5.22;;;4.72;;
20090;SDS011;10205;49.678;6.560;2023-06-10T04:09:31;4.93;;;4.43;;
20090;SDS011;10205;49.678;6.560;2023-06-10T04:12:00;4.80;;;4.28;;
20090;SDS011;10205;49.678;6.560;2023-06-10T04:14:27;4.70;;;4.30;;
20090;SDS011;10205;49.678;6.560;2023-06-10T04:16:54;4.63;;;4.22;;
20090;SDS011;10205;49.678;6.560;2023-06-10T04:19:21;4.63;;;4.15;;
20090;SDS011;10205;49.678;6.560;2023-06-10T04:21:49;5.75;;;4.90;;
20090;SDS011;10205;49.678;6.560;2023-06-10T04:24:16;4.70;;;4.30;;
20090;SDS011;10205;49.678;6.560;2023-06-10T04:26:43;5.85;;;5.07;;
20090;SDS011;10205;49.678;6.560;2023-06-10T04:29:12;4.50;;;4.10;;
20090;SDS011;10205;49.678;6.560;2023-06-10T04:31:39;5.10;;;4.60;;
20090;SDS011;10205;49.678;6.560;2023-06-10T04:34:07;4.93;;;4.53;;
20090;SDS011;10205;49.678;6.560;2023-06-10T04:36:34;4.82;;;4.40;;
20090;SDS011;10205;49.678;6.560;2023-06-10T04:39:01;4.70;;;4.20;;
20090;SDS011;10205;49.678;6.560;2023-06-10T04:41:28;4.95;;;4.53;;
20090;SDS011;10205;49.678;6.560;2023-06-10T04:43:55;4.80;;;4.40;;
20090;SDS011;10205;49.678;6.560;2023-06-10T04:46:24;5.30;;;4.90;;
20090;SDS011;10205;49.678;6.560;2023-06-10T04:48:51;4.53;;;4.13;;
20090;SDS011;10205;49.678;6.560;2023-06-10T04:51:19;5.05;;;4.55;;
20090;SDS011;10205;49.678;6.560;2023-06-10T04:53:46;5.22;;;4.80;;
20090;SDS011;10205;49.678;6.560;2023-06-10T04:56:13;4.22;;;3.88;;
20090;SDS011;10205;49.678;6.560;2023-06-10T04:58:41;5.32;;;4.47;;
20090;SDS011;10205;49.678;6.560;2023-06-10T05:01:08;5.05;;;4.60;;
20090;SDS011;10205;49.678;6.560;2023-06-10T05:03:36;4.85;;;4.30;;
20090;SDS011;10205;49.678;6.560;2023-06-10T05:06:04;4.53;;;4.03;;
20090;SDS011;10205;49.678;6.560;2023-06-10T05:08:31;4.82;;;4.43;;
20090;SDS011;10205;49.678;6.560;2023-06-10T05:10:59;5.20;;;4.70;;
20090;SDS011;10205;49.678;6.560;2023-06-10T05:13:29;5.00;;;4.50;;
20090;SDS011;10205;49.678;6.560;2023-06-10T05:15:56;4.45;;;3.97;;
20090;SDS011;10205;49.678;6.560;2023-06-10T05:18:23;5.57;;;5.13;;
20090;SDS011;10205;49.678;6.560;2023-06-10T05:20:52;4.68;;;4.28;;
20090;SDS011;10205;49.678;6.560;2023-06-10T05:23:19;4.95;;;4.45;;
20090;SDS011;10205;49.678;6.560;2023-06-10T05:25:46;4.53;;;4.22;;
20090;SDS011;10205;49.678;6.560;2023-06-10T05:28:14;4.57;;;4.18;;
20090;SDS011;10205;49.678;6.560;2023-06-10T05:30:41;4.75;;;4.35;;
20090;SDS011;10205;49.678;6.560;2023-06-10T05:33:08;4.88;;;4.47;;
20090;SDS011;10205;49.678;6.560;2023-06-10T05:35:35;5.07;;;4.57;;
20090;SDS011;10205;49.678;6.560;2023-06-10T05:38:04;4.80;;;4.40;;
20090;SDS011;10205;49.678;6.560;2023-06-10T05:40:31;5.85;;;5.25;;
20090;SDS011;10205;49.678;6.560;2023-06-10T05:42:59;5.10;;;4.70;;
20090;SDS011;10205;49.678;6.560;2023-06-10T05:45:26;5.70;;;5.20;;
20090;SDS011;10205;49.678;6.560;2023-06-10T05:47:53;6.60;;;5.82;;
20090;SDS011;10205;49.678;6.560;2023-06-10T05:50:21;5.63;;;5.13;;
20090;SDS011;10205;49.678;6.560;2023-06-10T05:52:50;5.55;;;5.05;;
20090;SDS011;10205;49.678;6.560;2023-06-10T05:55:20;5.85;;;5.30;;
20090;SDS011;10205;49.678;6.560;2023-06-10T05:57:47;6.35;;;5.75;;
20090;SDS011;10205;49.678;6.560;2023-06-10T06:00:24;6.63;;;5.63;;
20090;SDS011;10205;49.678;6.560;2023-06-10T06:02:52;11.80;;;5.63;;
20090;SDS011;10205;49.678;6.560;2023-06-10T06:05:19;7.03;;;5.32;;
20090;SDS011;10205;49.678;6.560;2023-06-10T06:07:46;6.00;;;5.28;;
20090;SDS011;10205;49.678;6.560;2023-06-10T06:10:13;6.75;;;5.80;;
20090;SDS011;10205;49.678;6.560;2023-06-10T06:12:42;5.40;;;4.90;;
20090;SDS011;10205;49.678;6.560;2023-06-10T06:15:10;6.57;;;5.88;;
20090;SDS011;10205;49.678;6.560;2023-06-10T06:17:37;6.15;;;5.55;;
20090;SDS011;10205;49.678;6.560;2023-06-10T06:20:05;5.90;;;5.30;;
20090;SDS011;10205;49.678;6.560;2023-06-10T06:22:34;11.55;;;6.00;;
20090;SDS011;10205;49.678;6.560;2023-06-10T06:25:01;6.45;;;5.85;;
20090;SDS011;10205;49.678;6.560;2023-06-10T06:27:28;5.82;;;5.20;;
20090;SDS011;10205;49.678;6.560;2023-06-10T06:29:57;5.72;;;5.22;;
20090;SDS011;10205;49.678;6.560;2023-06-10T06:32:24;7.47;;;5.40;;
20090;SDS011;10205;49.678;6.560;2023-06-10T06:34:52;6.47;;;5.43;;
20090;SDS011;10205;49.678;6.560;2023-06-10T06:37:21;6.57;;;5.53;;
20090;SDS011;10205;49.678;6.560;2023-06-10T06:39:49;5.47;;;5.00;;
20090;SDS011;10205;49.678;6.560;2023-06-10T06:42:16;6.03;;;5.43;;
20090;SDS011;10205;49.678;6.560;2023-06-10T06:44:44;6.85;;;5.65;;
20090;SDS011;10205;49.678;6.560;2023-06-10T06:47:13;7.53;;;5.50;;
20090;SDS011;10205;49.678;6.560;2023-06-10T06:49:42;5.78;;;5.22;;
20090;SDS011;10205;49.678;6.560;2023-06-10T06:52:10;5.63;;;5.10;;
20090;SDS011;10205;49.678;6.560;2023-06-10T06:54:37;6.10;;;5.38;;
20090;SDS011;10205;49.678;6.560;2023-06-10T06:57:04;6.32;;;5.22;;
20090;SDS011;10205;49.678;6.560;2023-06-10T06:59:32;6.35;;;5.75;;
20090;SDS011;10205;49.678;6.560;2023-06-10T07:01:59;5.70;;;5.20;;
20090;SDS011;10205;49.678;6.560;2023-06-10T07:04:28;6.00;;;5.32;;
20090;SDS011;10205;49.678;6.560;2023-06-10T07:06:55;6.03;;;5.32;;
20090;SDS011;10205;49.678;6.560;2023-06-10T07:09:23;6.10;;;5.05;;
20090;SDS011;10205;49.678;6.560;2023-06-10T07:11:50;6.32;;;5.63;;
20090;SDS011;10205;49.678;6.560;2023-06-10T07:14:17;6.40;;;5.63;;
20090;SDS011;10205;49.678;6.560;2023-06-10T07:16:44;9.18;;;5.47;;
20090;SDS011;10205;49.678;6.560;2023-06-10T07:19:13;6.00;;;5.50;;
20090;SDS011;10205;49.678;6.560;2023-06-10T07:21:42;5.75;;;5.13;;
20090;SDS011;10205;49.678;6.560;2023-06-10T07:24:09;5.88;;;5.28;;
20090;SDS011;10205;49.678;6.560;2023-06-10T07:26:36;7.03;;;5.88;;
20090;SDS011;10205;49.678;6.560;2023-06-10T07:29:03;5.45;;;4.95;;
20090;SDS011;10205;49.678;6.560;2023-06-10T07:31:30;6.45;;;5.35;;
20090;SDS011;10205;49.678;6.560;2023-06-10T07:33:58;5.88;;;5.28;;
20090;SDS011;10205;49.678;6.560;2023-06-10T07:36:25;6.63;;;5.07;;
20090;SDS011;10205;49.678;6.560;2023-06-10T07:38:55;6.55;;;5.90;;
20090;SDS011;10205;49.678;6.560;2023-06-10T07:41:23;5.55;;;5.05;;
20090;SDS011;10205;49.678;6.560;2023-06-10T07:43:51;5.38;;;4.88;;
20090;SDS011;10205;49.678;6.560;2023-06-10T07:46:21;6.13;;;5.53;;
20090;SDS011;10205;49.678;6.560;2023-06-10T07:48:48;6.28;;;5.57;;
20090;SDS011;10205;49.678;6.560;2023-06-10T07:51:16;5.72;;;5.20;;
20090;SDS011;10205;49.678;6.560;2023-06-10T07:53:43;6.53;;;5.68;;
20090;SDS011;10205;49.678;6.560;2023-06-10T07:56:12;6.15;;;5.55;;
20090;SDS011;10205;49.678;6.560;2023-06-10T07:58:39;5.78;;;4.82;;
20090;SDS011;10205;49.678;6.560;2023-06-10T08:01:06;6.32;;;5.25;;
20090;SDS011;10205;49.678;6.560;2023-06-10T08:03:34;6.35;;;5.75;;
20090;SDS011;10205;49.678;6.560;2023-06-10T08:06:01;6.10;;;5.50;;
20090;SDS011;10205;49.678;6.560;2023-06-10T08:08:29;5.72;;;4.95;;
20090;SDS011;10205;49.678;6.560;2023-06-10T08:10:56;7.03;;;5.90;;
20090;SDS011;10205;49.678;6.560;2023-06-10T08:13:25;6.20;;;5.60;;
20090;SDS011;10205;49.678;6.560;2023-06-10T08:15:52;6.38;;;5.57;;
20090;SDS011;10205;49.678;6.560;2023-06-10T08:18:20;5.47;;;5.00;;
20090;SDS011;10205;49.678;6.560;2023-06-10T08:20:47;5.55;;;5.05;;
20090;SDS011;10205;49.678;6.560;2023-06-10T08:23:15;5.38;;;4.88;;
20090;SDS011;10205;49.678;6.560;2023-06-10T08:25:42;5.70;;;5.20;;
20090;SDS011;10205;49.678;6.560;2023-06-10T08:28:09;6.32;;;5.50;;
20090;SDS011;10205;49.678;6.560;2023-06-10T08:30:38;6.50;;;5.43;;
20090;SDS011;10205;49.678;6.560;2023-06-10T08:33:05;8.27;;;5.47;;
20090;SDS011;10205;49.678;6.560;2023-06-10T08:35:32;5.80;;;5.30;;
20090;SDS011;10205;49.678;6.560;2023-06-10T08:37:59;5.47;;;4.97;;
20090;SDS011;10205;49.678;6.560;2023-06-10T08:40:27;6.43;;;5.22;;
20090;SDS011;10205;49.678;6.560;2023-06-10T08:42:57;6.57;;;5.20;;
20090;SDS011;10205;49.678;6.560;2023-06-10T08:45:34;7.25;;;5.30;;
20090;SDS011;10205;49.678;6.560;2023-06-10T08:48:04;5.55;;;5.00;;
20090;SDS011;10205;49.678;6.560;2023-06-10T08:50:33;5.40;;;4.90;;
20090;SDS011;10205;49.678;6.560;2023-06-10T08:53:03;7.18;;;5.50;;
20090;SDS011;10205;49.678;6.560;2023-06-10T08:55:33;6.43;;;5.18;;
20090;SDS011;10205;49.678;6.560;2023-06-10T08:58:04;6.00;;;5.03;;
20090;SDS011;10205;49.678;6.560;2023-06-10T09:00:31;5.43;;;4.93;;
20090;SDS011;10205;49.678;6.560;2023-06-10T09:03:02;7.47;;;5.32;;
20090;SDS011;10205;49.678;6.560;2023-06-10T09:05:33;5.50;;;4.97;;
20090;SDS011;10205;49.678;6.560;2023-06-10T09:08:02;5.18;;;4.68;;
20090;SDS011;10205;49.678;6.560;2023-06-10T09:10:32;5.40;;;4.78;;
20090;SDS011;10205;49.678;6.560;2023-06-10T09:13:00;5.47;;;4.53;;
20090;SDS011;10205;49.678;6.560;2023-06-10T09:15:27;6.70;;;4.28;;
20090;SDS011;10205;49.678;6.560;2023-06-10T09:17:54;4.88;;;4.25;;
20090;SDS011;10205;49.678;6.560;2023-06-10T09:20:23;5.75;;;4.30;;
20090;SDS011;10205;49.678;6.560;2023-06-10T09:22:50;4.75;;;4.35;;
20090;SDS011;10205;49.678;6.560;2023-06-10T09:25:18;4.95;;;4.25;;
20090;SDS011;10205;49.678;6.560;2023-06-10T09:27:45;8.38;;;4.30;;
20090;SDS011;10205;49.678;6.560;2023-06-10T09:30:23;4.32;;;3.92;;
20090;SDS011;10205;49.678;6.560;2023-06-10T09:32:53;4.22;;;3.90;;
20090;SDS011;10205;49.678;6.560;2023-06-10T09:35:23;3.60;;;3.30;;
20090;SDS011;10205;49.678;6.560;2023-06-10T09:37:52;4.82;;;4.35;;
20090;SDS011;10205;49.678;6.560;2023-06-10T09:40:19;4.20;;;3.80;;
20090;SDS011;10205;49.678;6.560;2023-06-10T09:42:49;5.22;;;3.70;;
20090;SDS011;10205;49.678;6.560;2023-06-10T09:45:21;4.15;;;3.75;;
20090;SDS011;10205;49.678;6.560;2023-06-10T09:47:51;4.50;;;4.10;;
20090;SDS011;10205;49.678;6.560;2023-06-10T09:50:19;4.00;;;3.65;;
20090;SDS011;10205;49.678;6.560;2023-06-10T09:52:48;4.57;;;3.70;;
20090;SDS011;10205;49.678;6.560;2023-06-10T09:55:16;4.00;;;3.47;;
20090;SDS011;10205;49.678;6.560;2023-06-10T09:57:44;4.10;;;3.70;;
20090;SDS011;10205;49.678;6.560;2023-06-10T10:00:15;3.75;;;3.45;;
20090;SDS011;10205;49.678;6.560;2023-06-10T10:02:44;4.15;;;3.75;;
20090;SDS011;10205;49.678;6.560;2023-06-10T10:05:14;3.70;;;3.20;;
20090;SDS011;10205;49.678;6.560;2023-06-10T10:07:42;3.80;;;3.50;;
20090;SDS011;10205;49.678;6.560;2023-06-10T10:10:13;3.53;;;3.22;;
20090;SDS011;10205;49.678;6.560;2023-06-10T10:12:41;3.63;;;3.33;;
20090;SDS011;10205;49.678;6.560;2023-06-10T10:15:13;4.20;;;3.20;;
20090;SDS011;10205;49.678;6.560;2023-06-10T10:17:44;3.95;;;3.33;;
20090;SDS011;10205;49.678;6.560;2023-06-10T10:20:18;3.75;;;3.00;;
20090;SDS011;10205;49.678;6.560;2023-06-10T10:22:51;3.40;;;3.10;;
20090;SDS011;10205;49.678;6.560;2023-06-10T10:25:24;8.70;;;3.40;;
20090;SDS011;10205;49.678;6.560;2023-06-10T10:27:56;3.83;;;3.00;;
20090;SDS011;10205;49.678;6.560;2023-06-10T10:30:28;6.65;;;3.08;;
20090;SDS011;10205;49.678;6.560;2023-06-10T10:33:04;3.28;;;2.97;;
20090;SDS011;10205;49.678;6.560;2023-06-10T10:35:38;3.42;;;3.05;;
20090;SDS011;10205;49.678;6.560;2023-06-10T10:38:07;6.68;;;3.67;;
20090;SDS011;10205;49.678;6.560;2023-06-10T10:40:36;4.63;;;3.30;;
20090;SDS011;10205;49.678;6.560;2023-06-10T10:43:05;3.63;;;3.33;;
20090;SDS011;10205;49.678;6.560;2023-06-10T10:45:34;3.38;;;3.08;;
20090;SDS011;10205;49.678;6.560;2023-06-10T10:48:04;4.65;;;3.33;;
20090;SDS011;10205;49.678;6.560;2023-06-10T10:50:37;3.00;;;2.80;;
20090;SDS011;10205;49.678;6.560;2023-06-10T10:53:05;6.50;;;3.22;;
20090;SDS011;10205;49.678;6.560;2023-06-10T10:55:33;3.28;;;2.97;;
20090;SDS011;10205;49.678;6.560;2023-06-10T10:58:03;3.40;;;3.10;;
20090;SDS011;10205;49.678;6.560;2023-06-10T11:00:33;3.65;;;3.20;;
20090;SDS011;10205;49.678;6.560;2023-06-10T11:03:05;3.40;;;3.10;;
20090;SDS011;10205;49.678;6.560;2023-06-10T11:05:38;5.00;;;3.20;;
20090;SDS011;10205;49.678;6.560;2023-06-10T11:08:09;4.18;;;3.17;;
20090;SDS011;10205;49.678;6.560;2023-06-10T11:10:38;3.47;;;3.22;;
20090;SDS011;10205;49.678;6.560;2023-06-10T11:13:08;6.38;;;3.33;;
20090;SDS011;10205;49.678;6.560;2023-06-10T11:15:39;5.10;;;3.08;;
20090;SDS011;10205;49.678;6.560;2023-06-10T11:18:13;5.50;;;3.40;;
20090;SDS011;10205;49.678;6.560;2023-06-10T11:20:52;5.85;;;2.97;;
20090;SDS011;10205;49.678;6.560;2023-06-10T11:23:34;3.47;;;3.17;;
20090;SDS011;10205;49.678;6.560;2023-06-10T11:29:07;2.88;;;2.67;;
20090;SDS011;10205;49.678;6.560;2023-06-10T11:31:40;2.75;;;2.55;;
20090;SDS011;10205;49.678;6.560;2023-06-10T11:34:15;3.35;;;2.70;;
20090;SDS011;10205;49.678;6.560;2023-06-10T11:36:49;3.33;;;3.03;;
20090;SDS011;10205;49.678;6.560;2023-06-10T11:39:18;3.88;;;3.08;;
20090;SDS011;10205;49.678;6.560;2023-06-10T11:41:48;3.10;;;2.80;;
20090;SDS011;10205;49.678;6.560;2023-06-10T11:44:18;3.13;;;2.88;;
20090;SDS011;10205;49.678;6.560;2023-06-10T11:46:47;3.50;;;3.20;;
20090;SDS011;10205;49.678;6.560;2023-06-10T11:49:16;3.78;;;3.05;;
20090;SDS011;10205;49.678;6.560;2023-06-10T11:51:44;3.65;;;2.78;;
20090;SDS011;10205;49.678;6.560;2023-06-10T11:54:15;3.28;;;3.08;;
20090;SDS011;10205;49.678;6.560;2023-06-10T11:56:43;3.33;;;2.85;;
20090;SDS011;10205;49.678;6.560;2023-06-10T11:59:10;2.95;;;2.70;;
20090;SDS011;10205;49.678;6.560;2023-06-10T12:01:42;3.90;;;3.08;;
20090;SDS011;10205;49.678;6.560;2023-06-10T12:04:12;3.35;;;2.67;;
20090;SDS011;10205;49.678;6.560;2023-06-10T12:06:43;3.40;;;3.10;;
20090;SDS011;10205;49.678;6.560;2023-06-10T12:09:13;2.85;;;2.63;;
20090;SDS011;10205;49.678;6.560;2023-06-10T12:11:42;3.70;;;3.40;;
20090;SDS011;10205;49.678;6.560;2023-06-10T12:14:09;3.13;;;2.83;;
20090;SDS011;10205;49.678;6.560;2023-06-10T12:16:37;3.58;;;3.28;;
20090;SDS011;10205;49.678;6.560;2023-06-10T12:19:06;2.75;;;2.55;;
20090;SDS011;10205;49.678;6.560;2023-06-10T12:21:33;3.58;;;2.88;;
20090;SDS011;10205;49.678;6.560;2023-06-10T12:24:07;6.78;;;3.08;;
20090;SDS011;10205;49.678;6.560;2023-06-10T12:26:36;3.30;;;3.00;;
20090;SDS011;10205;49.678;6.560;2023-06-10T12:29:15;3.45;;;3.15;;
20090;SDS011;10205;49.678;6.560;2023-06-10T12:31:56;3.45;;;3.15;;
20090;SDS011;10205;49.678;6.560;2023-06-10T12:34:35;3.30;;;3.00;;
20090;SDS011;10205;49.678;6.560;2023-06-10T12:37:04;3.20;;;2.90;;
20090;SDS011;10205;49.678;6.560;2023-06-10T12:39:38;3.05;;;2.70;;
20090;SDS011;10205;49.678;6.560;2023-06-10T12:42:08;4.53;;;2.85;;
20090;SDS011;10205;49.678;6.560;2023-06-10T12:44:38;3.95;;;3.10;;
20090;SDS011;10205;49.678;6.560;2023-06-10T12:47:08;4.28;;;3.08;;
20090;SDS011;10205;49.678;6.560;2023-06-10T12:49:37;4.55;;;3.00;;
20090;SDS011;10205;49.678;6.560;2023-06-10T12:52:05;3.35;;;2.97;;
20090;SDS011;10205;49.678;6.560;2023-06-10T12:54:33;3.35;;;3.08;;
20090;SDS011;10205;49.678;6.560;2023-06-10T12:57:01;3.42;;;3.22;;
20090;SDS011;10205;49.678;6.560;2023-06-10T12:59:29;3.47;;;3.17;;
20090;SDS011;10205;49.678;6.560;2023-06-10T13:01:57;3.67;;;3.33;;
20090;SDS011;10205;49.678;6.560;2023-06-10T13:04:26;2.97;;;2.75;;
20090;SDS011;10205;49.678;6.560;2023-06-10T13:06:53;3.22;;;3.03;;
20090;SDS011;10205;49.678;6.560;2023-06-10T13:09:21;3.50;;;2.75;;
20090;SDS011;10205;49.678;6.560;2023-06-10T13:11:48;3.13;;;2.90;;
20090;SDS011;10205;49.678;6.560;2023-06-10T13:14:15;3.15;;;2.78;;
20090;SDS011;10205;49.678;6.560;2023-06-10T13:16:43;5.95;;;3.30;;
20090;SDS011;10205;49.678;6.560;2023-06-10T13:19:10;3.55;;;3.28;;
20090;SDS011;10205;49.678;6.560;2023-06-10T13:21:39;3.20;;;2.85;;
20090;SDS011;10205;49.678;6.560;2023-06-10T13:24:06;4.32;;;3.13;;
20090;SDS011;10205;49.678;6.560;2023-06-10T13:26:33;3.10;;;2.90;;
20090;SDS011;10205;49.678;6.560;2023-06-10T13:29:00;3.17;;;2.97;;
20090;SDS011;10205;49.678;6.560;2023-06-10T13:31:28;3.53;;;3.22;;
20090;SDS011;10205;49.678;6.560;2023-06-10T13:33:55;3.72;;;3.42;;
20090;SDS011;10205;49.678;6.560;2023-06-10T13:36:22;3.08;;;2.88;;
20090;SDS011;10205;49.678;6.560;2023-06-10T13:38:51;3.63;;;3.30;;
20090;SDS011;10205;49.678;6.560;2023-06-10T13:41:18;3.38;;;3.08;;
20090;SDS011;10205;49.678;6.560;2023-06-10T13:43:45;3.55;;;3.25;;
20090;SDS011;10205;49.678;6.560;2023-06-10T13:46:13;3.38;;;2.92;;
20090;SDS011;10205;49.678;6.560;2023-06-10T13:48:40;3.83;;;3.50;;
20090;SDS011;10205;49.678;6.560;2023-06-10T13:51:07;3.70;;;3.40;;
20090;SDS011;10205;49.678;6.560;2023-06-10T13:53:34;3.78;;;2.95;;
20090;SDS011;10205;49.678;6.560;2023-06-10T13:56:03;3.22;;;3.00;;
20090;SDS011;10205;49.678;6.560;2023-06-10T13:58:31;3.55;;;3.28;;
20090;SDS011;10205;49.678;6.560;2023-06-10T14:01:03;3.50;;;2.92;;
20090;SDS011;10205;49.678;6.560;2023-06-10T14:03:31;3.65;;;3.30;;
20090;SDS011;10205;49.678;6.560;2023-06-10T14:05:58;3.38;;;3.10;;
20090;SDS011;10205;49.678;6.560;2023-06-10T14:08:25;4.28;;;3.35;;
20090;SDS011;10205;49.678;6.560;2023-06-10T14:10:53;4.97;;;3.10;;
20090;SDS011;10205;49.678;6.560;2023-06-10T14:13:21;3.50;;;3.20;;
20090;SDS011;10205;49.678;6.560;2023-06-10T14:15:48;4.05;;;3.30;;
20090;SDS011;10205;49.678;6.560;2023-06-10T14:18:15;4.25;;;3.33;;
20090;SDS011;10205;49.678;6.560;2023-06-10T14:20:43;3.80;;;3.50;;
20090;SDS011;10205;49.678;6.560;2023-06-10T14:23:10;3.58;;;3.28;;
20090;SDS011;10205;49.678;6.560;2023-06-10T14:25:37;3.45;;;3.15;;
20090;SDS011;10205;49.678;6.560;2023-06-10T14:28:04;4.07;;;3.78;;
20090;SDS011;10205;49.678;6.560;2023-06-10T14:30:33;7.53;;;3.42;;
20090;SDS011;10205;49.678;6.560;2023-06-10T14:33:00;5.32;;;3.08;;
20090;SDS011;10205;49.678;6.560;2023-06-10T14:35:27;3.47;;;3.17;;
20090;SDS011;10205;49.678;6.560;2023-06-10T14:37:54;3.10;;;2.90;;
20090;SDS011;10205;49.678;6.560;2023-06-10T14:40:22;3.55;;;3.25;;
20090;SDS011;10205;49.678;6.560;2023-06-10T14:42:51;3.70;;;3.40;;
20090;SDS011;10205;49.678;6.560;2023-06-10T14:45:18;3.45;;;3.15;;
20090;SDS011;10205;49.678;6.560;2023-06-10T14:47:46;3.47;;;3.17;;
20090;SDS011;10205;49.678;6.560;2023-06-10T14:50:13;3.67;;;3.20;;
20090;SDS011;10205;49.678;6.560;2023-06-10T14:52:41;3.78;;;3.47;;
20090;SDS011;10205;49.678;6.560;2023-06-10T14:55:08;3.33;;;3.03;;
20090;SDS011;10205;49.678;6.560;2023-06-10T14:57:35;3.30;;;3.00;;
20090;SDS011;10205;49.678;6.560;2023-06-10T15:00:03;5.70;;;3.22;;